createdAt,value
2023-05-20T00:04:28.779Z,0.73
2023-05-20T00:09:30.854Z,0.60
2023-05-20T00:14:32.852Z,0.30
2023-05-20T00:19:34.988Z,0.57
2023-05-20T00:24:36.936Z,0.45
2023-05-20T00:29:38.957Z,0.57
2023-05-20T00:34:41.160Z,0.40
2023-05-20T00:39:43.390Z,0.45
2023-05-20T00:44:45.332Z,0.50
2023-05-20T00:49:50.521Z,0.47
2023-05-20T00:54:52.897Z,0.70
2023-05-20T00:59:55.485Z,0.70
2023-05-20T01:04:58.116Z,0.60
2023-05-20T01:10:00.506Z,0.40
2023-05-20T01:15:07.424Z,0.50
2023-05-20T01:20:10.704Z,0.60
2023-05-20T01:25:12.734Z,0.70
2023-05-20T01:30:16.066Z,0.77
2023-05-20T01:35:21.133Z,0.30
2023-05-20T01:40:24.034Z,0.45
2023-05-20T01:45:26.402Z,0.40
2023-05-20T01:50:28.295Z,0.52
2023-05-20T01:55:30.304Z,0.45
2023-05-20T02:00:36.203Z,0.50
2023-05-20T02:05:38.479Z,0.40
2023-05-20T02:10:40.936Z,0.60
2023-05-20T02:15:43.273Z,0.30
2023-05-20T02:20:45.425Z,0.40
2023-05-20T02:25:47.903Z,0.40
2023-05-20T02:30:52.679Z,0.50
2023-05-20T02:35:54.862Z,0.57
2023-05-20T02:40:57.244Z,0.65
2023-05-20T02:45:59.208Z,0.20
2023-05-20T02:51:01.498Z,0.60
2023-05-20T02:56:07.031Z,0.35
2023-05-20T03:01:09.089Z,0.30
2023-05-20T03:06:11.201Z,0.30
2023-05-20T03:11:13.196Z,0.50
2023-05-20T03:16:17.198Z,0.50
2023-05-20T03:21:19.275Z,0.30
2023-05-20T03:26:22.142Z,0.40
2023-05-20T03:31:24.305Z,0.60
2023-05-20T03:36:26.238Z,0.40
2023-05-20T03:41:28.583Z,0.30
2023-05-20T03:46:32.982Z,0.43
2023-05-20T03:51:35.054Z,0.63
2023-05-20T03:56:37.151Z,0.50
2023-05-20T04:01:39.311Z,0.65
2023-05-20T04:06:41.295Z,0.47
2023-05-20T04:11:43.443Z,0.30
2023-05-20T04:16:46.253Z,0.40
2023-05-20T04:21:48.413Z,0.45
2023-05-20T04:26:50.490Z,0.30
2023-05-20T04:31:52.507Z,0.40
2023-05-20T04:36:54.683Z,0.40
2023-05-20T04:41:57.072Z,0.50
2023-05-20T04:46:59.959Z,0.40
2023-05-20T04:52:02.117Z,0.52
2023-05-20T04:57:04.450Z,0.50
2023-05-20T05:02:06.466Z,0.52
2023-05-20T05:07:08.379Z,0.35
2023-05-20T05:12:10.421Z,0.47
2023-05-20T05:17:12.687Z,0.60
2023-05-20T05:22:14.732Z,0.25
2023-05-20T05:27:17.116Z,0.50
2023-05-20T05:32:19.308Z,0.57
2023-05-20T05:37:21.728Z,0.55
2023-05-20T05:42:23.724Z,0.30
2023-05-20T05:47:30.109Z,0.60
2023-05-20T05:52:32.198Z,0.60
2023-05-20T05:57:34.397Z,0.63
2023-05-20T06:02:36.864Z,0.60
2023-05-20T06:07:39.104Z,1.02
2023-05-20T06:12:41.328Z,0.82
2023-05-20T06:17:43.274Z,0.90
2023-05-20T06:22:45.158Z,0.90
2023-05-20T06:27:47.121Z,0.80
2023-05-20T06:32:49.299Z,0.85
2023-05-20T06:37:51.430Z,0.90
2023-05-20T06:42:53.612Z,0.85
2023-05-20T06:47:56.423Z,0.80
2023-05-20T06:52:58.675Z,0.90
2023-05-20T06:58:00.811Z,1.10
2023-05-20T07:03:02.930Z,1.20
2023-05-20T07:08:05.122Z,1.02
2023-05-20T07:13:07.132Z,1.08
2023-05-20T07:18:09.081Z,0.70
2023-05-20T07:23:11.746Z,1.20
2023-05-20T07:28:17.064Z,0.90
2023-05-20T07:33:19.563Z,1.52
2023-05-20T07:38:21.900Z,0.98
2023-05-20T07:43:23.984Z,1.38
2023-05-20T07:48:26.275Z,1.05
2023-05-20T07:53:28.336Z,0.90
2023-05-20T07:58:31.944Z,0.75
2023-05-20T08:03:34.193Z,1.00
2023-05-20T08:08:36.563Z,0.80
2023-05-20T08:13:38.533Z,1.20
2023-05-20T08:18:40.442Z,1.02
2023-05-20T08:23:42.518Z,0.70
2023-05-20T08:28:44.515Z,1.40
2023-05-20T08:33:46.448Z,0.60
2023-05-20T08:38:49.209Z,0.82
2023-05-20T08:43:52.211Z,0.93
2023-05-20T08:48:54.183Z,1.25
2023-05-20T08:53:56.290Z,0.95
2023-05-20T08:58:58.366Z,1.25
2023-05-20T09:04:00.616Z,0.85
2023-05-20T09:09:02.456Z,1.58
2023-05-20T09:14:04.485Z,0.47
2023-05-20T09:19:07.847Z,1.58
2023-05-20T09:24:09.974Z,0.85
2023-05-20T09:29:11.983Z,0.75
2023-05-20T09:34:14.468Z,1.20
2023-05-20T09:39:20.366Z,0.75
2023-05-20T09:44:23.338Z,0.90
2023-05-20T09:49:26.537Z,1.45
2023-05-20T09:54:30.222Z,1.10
2023-05-20T09:59:33.104Z,0.88
2023-05-20T10:04:37.653Z,1.38
2023-05-20T10:09:55.475Z,0.75
2023-05-20T10:15:16.151Z,0.70
2023-05-20T10:20:18.383Z,1.05
2023-05-20T10:25:30.112Z,1.40
2023-05-20T10:30:32.215Z,0.70
2023-05-20T10:35:34.256Z,0.85
2023-05-20T10:40:36.693Z,0.70
2023-05-20T10:45:58.957Z,1.30
2023-05-20T10:51:06.287Z,1.23
2023-05-20T10:56:18.896Z,1.48
2023-05-20T11:01:26.811Z,1.50
2023-05-20T11:06:29.428Z,1.17
2023-05-20T11:11:31.694Z,1.10
2023-05-20T11:16:33.759Z,1.60
2023-05-20T11:21:42.795Z,1.50
2023-05-20T11:26:45.319Z,1.35
2023-05-20T11:31:49.025Z,1.27
2023-05-20T11:37:00.979Z,0.90
2023-05-20T11:42:03.698Z,1.13
2023-05-20T11:47:06.345Z,1.50
2023-05-20T11:52:15.744Z,1.45
2023-05-20T11:57:19.282Z,1.00
2023-05-20T12:02:21.513Z,1.20
2023-05-20T12:07:23.713Z,1.52
2023-05-20T12:12:26.040Z,1.55
2023-05-20T12:17:28.319Z,1.05
2023-05-20T12:22:30.625Z,1.33
2023-05-20T12:27:34.349Z,1.10
2023-05-20T12:32:38.105Z,1.25
2023-05-20T12:37:44.806Z,1.52
2023-05-20T12:42:46.912Z,1.33
2023-05-20T12:47:49.264Z,1.25
2023-05-20T12:52:51.829Z,0.82
2023-05-20T12:57:55.143Z,1.25
2023-05-20T13:02:57.416Z,1.08
2023-05-20T13:07:59.348Z,1.50
2023-05-20T13:13:01.392Z,1.10
2023-05-20T13:18:06.324Z,1.45
2023-05-20T13:23:08.658Z,1.58
2023-05-20T13:28:11.017Z,1.20
2023-05-20T13:33:13.045Z,1.60
2023-05-20T13:38:15.368Z,1.23
2023-05-20T13:43:17.479Z,1.00
2023-05-20T13:48:19.426Z,1.98
2023-05-20T13:53:21.645Z,1.25
2023-05-20T13:58:23.842Z,1.20
2023-05-20T14:03:25.951Z,1.65
2023-05-20T14:08:28.366Z,1.60
2023-05-20T14:13:30.382Z,1.80
2023-05-20T14:18:32.338Z,1.45
2023-05-20T14:23:34.363Z,1.40
2023-05-20T14:28:36.331Z,1.58
2023-05-20T14:33:38.486Z,1.25
2023-05-20T14:38:40.612Z,1.30
2023-05-20T14:43:42.597Z,1.63
2023-05-20T14:48:44.583Z,2.03
2023-05-20T14:53:46.556Z,1.90
2023-05-20T14:58:48.661Z,1.80
2023-05-20T15:03:50.752Z,2.20
2023-05-20T15:08:53.194Z,2.55
2023-05-20T15:13:55.856Z,2.55
2023-05-20T15:18:57.924Z,1.75
2023-05-20T15:24:00.298Z,2.20
2023-05-20T15:29:02.796Z,2.45
2023-05-20T15:34:04.871Z,1.90
2023-05-20T15:39:06.948Z,1.50
2023-05-20T15:44:09.299Z,1.88
2023-05-20T15:49:12.866Z,1.83
2023-05-20T15:54:14.964Z,1.63
2023-05-20T15:59:16.917Z,1.70
2023-05-20T16:04:19.871Z,2.03
2023-05-20T16:09:22.786Z,2.05
2023-05-20T16:14:25.219Z,1.63
2023-05-20T16:19:27.263Z,1.70
2023-05-20T16:24:29.290Z,2.13
2023-05-20T16:29:31.540Z,1.30
2023-05-20T16:34:33.704Z,1.58
2023-05-20T16:39:36.036Z,2.10
2023-05-20T16:44:39.515Z,1.17
2023-05-20T16:49:41.692Z,1.38
2023-05-20T16:54:43.921Z,1.50
2023-05-20T16:59:46.626Z,1.20
2023-05-20T17:04:48.799Z,1.60
2023-05-20T17:09:51.348Z,1.45
2023-05-20T17:14:53.598Z,1.67
2023-05-20T17:19:55.749Z,1.67
2023-05-20T17:24:57.908Z,1.50
2023-05-20T17:30:01.999Z,1.52
2023-05-20T17:35:06.329Z,1.60
2023-05-20T17:40:08.797Z,1.42
2023-05-20T17:45:11.515Z,1.60
2023-05-20T17:50:15.003Z,1.70
2023-05-20T17:55:18.969Z,1.92
2023-05-20T18:00:21.915Z,1.60
2023-05-20T18:05:24.286Z,1.27
2023-05-20T18:10:29.962Z,1.45
2023-05-20T18:15:32.117Z,1.77
2023-05-20T18:20:34.595Z,1.25
2023-05-20T18:25:37.031Z,1.65
2023-05-20T18:30:39.300Z,1.48
2023-05-20T18:35:41.353Z,1.67
2023-05-20T18:40:43.384Z,1.13
2023-05-20T18:45:45.391Z,1.45
2023-05-20T18:50:47.929Z,1.35
2023-05-20T18:55:50.635Z,1.20
2023-05-20T19:00:53.055Z,1.48
2023-05-20T19:05:55.260Z,1.40
2023-05-20T19:10:57.216Z,1.90
2023-05-20T19:15:59.226Z,4.18
2023-05-20T19:21:01.331Z,2.85
2023-05-20T19:26:03.429Z,2.85
2023-05-20T19:31:05.842Z,2.10
2023-05-20T19:36:08.009Z,2.97
2023-05-20T19:41:13.912Z,2.60
2023-05-20T19:46:16.502Z,2.38
2023-05-20T19:51:18.765Z,2.15
2023-05-20T19:56:22.183Z,1.92
2023-05-20T20:01:24.065Z,1.60
2023-05-20T20:06:26.481Z,1.92
2023-05-20T20:11:28.409Z,2.58
2023-05-20T20:16:30.697Z,1.67
2023-05-20T20:21:32.772Z,1.50
2023-05-20T20:26:34.996Z,1.60
2023-05-20T20:31:38.112Z,1.67
2023-05-20T20:36:40.317Z,1.40
2023-05-20T20:41:45.429Z,1.63
2023-05-20T20:46:55.168Z,1.42
2023-05-20T20:51:57.268Z,1.75
2023-05-20T20:57:00.434Z,1.48
2023-05-20T21:02:03.546Z,1.60
2023-05-20T21:07:05.583Z,1.55
2023-05-20T21:12:07.987Z,1.20
2023-05-20T21:17:10.495Z,1.35
2023-05-20T21:22:12.528Z,1.23
2023-05-20T21:27:14.970Z,1.45
2023-05-20T21:32:17.104Z,1.85
2023-05-20T21:37:19.364Z,1.63
2023-05-20T21:42:21.362Z,1.40
2023-05-20T21:47:23.600Z,2.50
2023-05-20T21:52:25.713Z,2.17
2023-05-20T21:57:27.698Z,1.90
2023-05-20T22:02:29.891Z,1.52
2023-05-20T22:07:32.123Z,1.60
2023-05-20T22:12:36.149Z,1.55
2023-05-20T22:17:39.208Z,1.83
2023-05-20T22:22:41.563Z,1.30
2023-05-20T22:27:43.777Z,1.42
2023-05-20T22:32:46.106Z,1.83
2023-05-20T22:37:48.772Z,1.75
2023-05-20T22:42:50.855Z,1.15
2023-05-20T22:47:53.418Z,1.20
2023-05-20T22:52:55.559Z,1.25
2023-05-20T22:57:58.215Z,1.30
2023-05-20T23:03:00.322Z,0.90
2023-05-20T23:08:02.383Z,1.40
2023-05-20T23:13:04.383Z,1.13
2023-05-20T23:18:06.554Z,1.30
2023-05-20T23:23:11.586Z,1.60
2023-05-20T23:28:13.888Z,1.30
2023-05-20T23:33:18.430Z,1.25
2023-05-20T23:38:24.908Z,1.10
2023-05-20T23:43:26.898Z,1.20
2023-05-20T23:48:28.821Z,1.15
2023-05-20T23:53:30.988Z,1.25
2023-05-20T23:58:32.947Z,1.13
